createdAt,value
2022-11-17T00:01:10.614Z,83.82
2022-11-17T00:04:05.421Z,83.35
2022-11-17T00:06:55.366Z,82.26
2022-11-17T00:09:35.623Z,82.86
2022-11-17T00:12:28.465Z,82.51
2022-11-17T00:15:05.517Z,84.13
2022-11-17T00:17:39.109Z,83.76
2022-11-17T00:20:32.125Z,82.83
2022-11-17T00:23:07.754Z,82.55
2022-11-17T00:25:46.768Z,82.27
2022-11-17T00:28:22.617Z,81.26
2022-11-17T00:31:11.576Z,82.19
2022-11-17T00:34:08.812Z,82.69
2022-11-17T00:37:14.753Z,82.79
2022-11-17T00:40:12.669Z,82.66
2022-11-17T00:42:44.839Z,81.07
2022-11-17T00:46:12.747Z,81.95
2022-11-17T00:48:48.693Z,83.75
2022-11-17T00:51:19.501Z,83.58
2022-11-17T00:53:53.029Z,83.99
2022-11-17T00:56:43.823Z,83.75
2022-11-17T00:59:31.685Z,82.57
2022-11-17T01:02:12.400Z,82.58
2022-11-17T01:05:16.462Z,83.37
2022-11-17T01:08:07.302Z,85.31
2022-11-17T01:10:38.732Z,84.99
2022-11-17T01:13:17.074Z,84.83
2022-11-17T01:15:50.936Z,85.29
2022-11-17T01:18:26.369Z,84.26
2022-11-17T01:21:36.685Z,83.00
2022-11-17T01:24:27.391Z,83.65
2022-11-17T01:27:13.072Z,84.30
2022-11-17T01:29:48.008Z,83.14
2022-11-17T01:32:30.067Z,82.83
2022-11-17T01:35:46.077Z,81.49
2022-11-17T01:38:22.753Z,81.59
2022-11-17T01:40:54.016Z,80.67
2022-11-17T01:43:47.864Z,81.83
2022-11-17T01:47:04.213Z,83.05
2022-11-17T01:49:38.892Z,83.18
2022-11-17T01:52:13.143Z,80.39
2022-11-17T01:55:13.300Z,80.85
2022-11-17T01:57:46.681Z,80.61
2022-11-17T02:00:43.247Z,82.40
2022-11-17T02:03:39.773Z,81.37
2022-11-17T02:06:39.048Z,80.92
2022-11-17T02:09:42.357Z,80.55
2022-11-17T02:12:27.184Z,81.32
2022-11-17T02:15:34.502Z,80.85
2022-11-17T02:18:13.555Z,80.58
2022-11-17T02:21:18.916Z,80.74
2022-11-17T02:24:15.032Z,80.43
2022-11-17T02:27:29.070Z,81.30
2022-11-17T02:30:23.618Z,81.80
2022-11-17T02:33:09.237Z,83.34
2022-11-17T02:36:22.305Z,83.15
2022-11-17T02:39:24.004Z,82.11
2022-11-17T02:42:47.956Z,81.28
2022-11-17T02:45:30.233Z,82.02
2022-11-17T02:48:45.178Z,81.68
2022-11-17T02:51:51.398Z,80.82
2022-11-17T02:54:26.533Z,80.81
2022-11-17T02:57:05.002Z,80.72
2022-11-17T02:59:52.034Z,81.76
2022-11-17T03:02:53.098Z,81.02
2022-11-17T03:06:11.543Z,80.13
2022-11-17T03:09:27.497Z,81.73
2022-11-17T03:12:14.863Z,82.01
2022-11-17T03:15:30.799Z,82.19
2022-11-17T03:19:07.917Z,82.76
2022-11-17T03:22:31.567Z,81.74
2022-11-17T03:25:19.880Z,81.39
2022-11-17T03:28:18.354Z,81.19
2022-11-17T03:30:53.849Z,82.32
2022-11-17T03:33:50.361Z,81.60
2022-11-17T03:36:36.856Z,83.58
2022-11-17T03:39:40.648Z,84.54
2022-11-17T03:42:52.594Z,84.77
2022-11-17T03:45:38.344Z,85.23
2022-11-17T03:48:48.827Z,85.63
2022-11-17T03:51:27.722Z,86.96
2022-11-17T03:54:14.676Z,88.29
2022-11-17T03:57:13.571Z,88.83
2022-11-17T04:00:08.254Z,89.76
2022-11-17T04:03:00.116Z,89.97
2022-11-17T04:05:51.867Z,90.04
2022-11-17T04:08:34.818Z,89.49
2022-11-17T04:11:38.135Z,89.27
2022-11-17T04:14:43.403Z,88.77
2022-11-17T04:17:34.450Z,87.96
2022-11-17T04:20:26.296Z,88.44
2022-11-17T04:23:36.574Z,89.00
2022-11-17T04:26:39.287Z,88.30
2022-11-17T04:29:18.970Z,86.84
2022-11-17T04:32:03.863Z,86.83
2022-11-17T04:34:45.411Z,86.57
2022-11-17T04:37:34.955Z,85.53
2022-11-17T04:40:19.804Z,85.93
2022-11-17T04:42:52.847Z,85.23
2022-11-17T04:45:41.053Z,86.32
2022-11-17T04:48:39.733Z,85.86
2022-11-17T04:51:38.388Z,85.73
2022-11-17T04:54:24.067Z,85.00
2022-11-17T04:57:26.443Z,85.41
2022-11-17T05:00:54.636Z,84.60
2022-11-17T05:03:42.907Z,84.88
2022-11-17T05:06:32.476Z,84.66
2022-11-17T05:09:14.335Z,83.76
2022-11-17T05:12:26.780Z,82.43
2022-11-17T05:15:43.049Z,83.46
2022-11-17T05:18:16.645Z,84.34
2022-11-17T05:20:58.558Z,85.10
2022-11-17T05:24:01.549Z,84.27
2022-11-17T05:26:45.113Z,83.48
2022-11-17T05:29:34.476Z,83.82
2022-11-17T05:32:39.501Z,84.66
2022-11-17T05:35:10.339Z,84.18
2022-11-17T05:37:48.555Z,84.25
2022-11-17T05:40:52.957Z,84.85
2022-11-17T05:44:09.216Z,85.55
2022-11-17T05:47:05.323Z,86.34
2022-11-17T05:49:45.376Z,86.91
2022-11-17T05:52:17.961Z,86.92
2022-11-17T05:54:58.571Z,87.03
2022-11-17T05:57:47.160Z,87.04
2022-11-17T06:00:39.096Z,87.02
2022-11-17T06:03:53.050Z,87.20
2022-11-17T06:06:45.547Z,86.44
2022-11-17T06:09:33.329Z,86.76
2022-11-17T06:12:11.982Z,86.53
2022-11-17T06:15:22.000Z,87.20
2022-11-17T06:18:19.864Z,87.68
2022-11-17T06:21:00.479Z,87.96
2022-11-17T06:23:36.388Z,87.24
2022-11-17T06:26:24.657Z,86.69
2022-11-17T06:29:08.372Z,86.95
2022-11-17T06:32:08.470Z,86.74
2022-11-17T06:34:50.546Z,86.65
2022-11-17T06:38:05.585Z,87.27
2022-11-17T06:40:42.249Z,87.98
2022-11-17T06:43:39.680Z,87.95
2022-11-17T06:46:18.961Z,87.98
2022-11-17T06:49:26.045Z,87.68
2022-11-17T06:52:24.899Z,87.85
2022-11-17T06:55:41.814Z,88.11
2022-11-17T06:58:59.087Z,87.45
2022-11-17T07:01:43.918Z,86.60
2022-11-17T07:04:27.830Z,86.40
2022-11-17T07:07:28.420Z,86.21
2022-11-17T07:10:11.283Z,85.50
2022-11-17T07:13:34.663Z,85.12
2022-11-17T07:16:29.251Z,86.29
2022-11-17T07:19:58.994Z,85.30
2022-11-17T07:22:48.596Z,85.86
2022-11-17T07:25:44.533Z,85.34
2022-11-17T07:29:02.219Z,85.90
2022-11-17T07:32:14.666Z,85.27
2022-11-17T07:35:19.123Z,86.62
2022-11-17T07:38:50.758Z,86.77
2022-11-17T07:42:11.308Z,86.75
2022-11-17T07:45:17.114Z,87.14
2022-11-17T07:48:33.895Z,86.50
2022-11-17T07:51:52.371Z,86.70
2022-11-17T07:54:58.638Z,86.75
2022-11-17T07:57:54.516Z,87.25
2022-11-17T08:01:04.756Z,88.32
2022-11-17T08:03:44.436Z,89.22
2022-11-17T08:06:47.302Z,89.24
2022-11-17T08:09:57.510Z,89.57
2022-11-17T08:12:43.982Z,90.35
2022-11-17T08:15:22.138Z,90.16
2022-11-17T08:18:09.798Z,89.89
2022-11-17T08:20:48.235Z,90.04
2022-11-17T08:23:45.688Z,90.05
2022-11-17T08:26:51.903Z,90.13
2022-11-17T08:30:18.386Z,89.61
2022-11-17T08:33:07.667Z,88.82
2022-11-17T08:35:48.239Z,89.07
2022-11-17T08:38:39.980Z,89.15
2022-11-17T08:41:58.627Z,89.30
2022-11-17T08:44:47.810Z,90.33
2022-11-17T08:47:49.406Z,90.51
2022-11-17T08:50:25.355Z,90.12
2022-11-17T08:53:24.648Z,89.91
2022-11-17T08:56:29.614Z,89.56
2022-11-17T08:59:13.939Z,89.58
2022-11-17T09:01:49.971Z,89.51
2022-11-17T09:05:12.715Z,89.10
2022-11-17T09:07:51.761Z,89.53
2022-11-17T09:10:49.405Z,89.15
2022-11-17T09:13:41.217Z,89.21
2022-11-17T09:16:41.287Z,88.68
2022-11-17T09:19:46.777Z,88.45
2022-11-17T09:22:54.310Z,88.37
2022-11-17T09:25:53.523Z,88.92
2022-11-17T09:28:38.646Z,88.95
2022-11-17T09:31:30.839Z,89.46
2022-11-17T09:34:37.686Z,91.72
2022-11-17T09:37:31.488Z,92.38
2022-11-17T09:40:54.746Z,91.70
2022-11-17T09:44:14.508Z,91.45
2022-11-17T09:47:11.923Z,90.92
2022-11-17T09:50:02.630Z,90.40
2022-11-17T09:52:37.049Z,90.20
2022-11-17T09:55:28.514Z,90.15
2022-11-17T09:58:26.954Z,89.06
2022-11-17T10:00:54.393Z,89.09
2022-11-17T10:03:31.717Z,90.85
2022-11-17T10:06:00.775Z,91.32
2022-11-17T10:08:40.552Z,90.40
2022-11-17T10:11:31.648Z,88.37
2022-11-17T10:14:13.943Z,86.79
2022-11-17T10:16:43.841Z,84.38
2022-11-17T10:19:23.005Z,85.23
2022-11-17T10:21:54.662Z,88.60
2022-11-17T10:24:38.189Z,86.46
2022-11-17T10:27:15.558Z,87.92
2022-11-17T10:30:04.003Z,87.07
2022-11-17T10:32:34.687Z,86.60
2022-11-17T10:35:15.330Z,83.88
2022-11-17T10:37:51.595Z,85.53
2022-11-17T10:40:25.332Z,84.32
2022-11-17T10:43:01.588Z,84.29
2022-11-17T10:45:28.814Z,84.77
2022-11-17T10:48:19.954Z,82.49
2022-11-17T10:50:59.930Z,82.76
2022-11-17T10:53:46.042Z,82.20
2022-11-17T10:56:18.487Z,83.04
2022-11-17T10:58:56.625Z,79.96
2022-11-17T11:01:35.338Z,80.84
2022-11-17T11:04:03.998Z,80.03
2022-11-17T11:06:32.750Z,78.34
2022-11-17T11:09:17.390Z,77.93
2022-11-17T11:11:48.246Z,78.51
2022-11-17T11:14:22.158Z,79.21
2022-11-17T11:16:50.982Z,77.92
2022-11-17T11:19:19.991Z,79.25
2022-11-17T11:22:28.048Z,80.29
2022-11-17T11:25:09.986Z,81.47
2022-11-17T11:27:42.486Z,81.14
2022-11-17T11:30:15.410Z,83.49
2022-11-17T11:33:00.262Z,82.70
2022-11-17T11:35:35.663Z,83.66
2022-11-17T11:38:17.219Z,83.42
2022-11-17T11:40:51.543Z,83.29
2022-11-17T11:43:39.694Z,83.27
2022-11-17T11:46:09.062Z,83.71
2022-11-17T11:48:40.078Z,83.36
2022-11-17T11:51:15.225Z,83.71
2022-11-17T11:53:44.566Z,83.34
2022-11-17T11:56:30.783Z,83.71
2022-11-17T11:59:07.829Z,82.20
2022-11-17T12:01:45.239Z,83.99
2022-11-17T12:04:23.841Z,83.98
2022-11-17T12:07:06.258Z,83.13
2022-11-17T12:09:54.796Z,82.37
2022-11-17T12:12:30.902Z,82.42
2022-11-17T12:15:20.366Z,82.71
2022-11-17T12:17:52.954Z,81.54
2022-11-17T12:20:38.423Z,82.05
2022-11-17T12:23:14.034Z,81.62
2022-11-17T12:25:53.917Z,81.73
2022-11-17T12:28:38.901Z,81.71
2022-11-17T12:31:10.513Z,81.44
2022-11-17T12:33:52.316Z,81.82
2022-11-17T12:36:30.040Z,82.85
2022-11-17T12:38:58.573Z,81.89
2022-11-17T12:41:46.994Z,83.58
2022-11-17T12:44:32.292Z,83.59
2022-11-17T12:47:20.386Z,82.05
2022-11-17T12:50:02.168Z,82.89
2022-11-17T12:52:46.523Z,81.94
2022-11-17T12:55:17.871Z,81.65
2022-11-17T12:57:50.313Z,82.49
2022-11-17T13:00:23.545Z,82.18
2022-11-17T13:03:02.812Z,80.73
2022-11-17T13:05:30.285Z,82.01
2022-11-17T13:08:15.015Z,82.78
2022-11-17T13:10:41.832Z,80.94
2022-11-17T13:13:24.664Z,80.79
2022-11-17T13:16:00.310Z,82.35
2022-11-17T13:18:40.922Z,82.85
2022-11-17T13:21:26.029Z,81.87
2022-11-17T13:23:53.603Z,82.13
2022-11-17T13:26:23.218Z,82.34
2022-11-17T13:29:05.217Z,82.89
2022-11-17T13:31:32.895Z,82.87
2022-11-17T13:33:59.487Z,83.02
2022-11-17T13:36:27.320Z,83.13
2022-11-17T13:39:00.318Z,85.74
2022-11-17T13:41:32.244Z,86.15
2022-11-17T13:43:59.951Z,85.72
2022-11-17T13:46:26.757Z,86.46
2022-11-17T13:48:53.626Z,84.02
2022-11-17T13:51:20.310Z,85.59
2022-11-17T13:53:51.305Z,85.96
2022-11-17T13:56:29.388Z,86.50
2022-11-17T13:58:57.059Z,86.97
2022-11-17T14:01:28.963Z,86.62
2022-11-17T14:04:22.643Z,86.53
2022-11-17T14:06:55.710Z,85.13
2022-11-17T14:09:23.142Z,84.02
2022-11-17T14:11:50.433Z,83.99
2022-11-17T14:14:42.049Z,82.30
2022-11-17T14:17:21.443Z,77.87
2022-11-17T14:19:48.582Z,79.91
2022-11-17T14:22:22.381Z,80.11
2022-11-17T14:24:50.486Z,80.60
2022-11-17T14:27:29.709Z,82.44
2022-11-17T14:29:56.484Z,84.19
2022-11-17T14:32:23.066Z,84.78
2022-11-17T14:34:49.752Z,84.48
2022-11-17T14:37:16.891Z,85.01
2022-11-17T14:39:43.595Z,85.42
2022-11-17T14:42:11.213Z,85.41
2022-11-17T14:44:37.968Z,85.79
2022-11-17T14:47:04.587Z,85.54
2022-11-17T14:49:31.898Z,85.21
2022-11-17T14:51:59.325Z,84.82
2022-11-17T14:54:26.271Z,84.35
2022-11-17T14:56:52.872Z,84.93
2022-11-17T14:59:19.608Z,85.67
2022-11-17T15:01:46.417Z,84.95
2022-11-17T15:04:42.930Z,86.01
2022-11-17T15:07:01.663Z,85.94
2022-11-17T15:09:28.425Z,86.70
2022-11-17T15:11:55.180Z,86.14
2022-11-17T15:14:22.691Z,86.33
2022-11-17T15:16:49.358Z,85.67
2022-11-17T15:19:16.168Z,86.02
2022-11-17T15:21:42.966Z,86.29
2022-11-17T15:24:09.663Z,86.21
2022-11-17T15:26:36.473Z,86.13
2022-11-17T15:29:03.325Z,86.45
2022-11-17T15:31:30.035Z,86.24
2022-11-17T15:33:56.680Z,86.61
2022-11-17T15:36:23.696Z,87.25
2022-11-17T15:38:50.410Z,87.10
2022-11-17T15:41:17.174Z,88.05
2022-11-17T15:43:44.650Z,88.07
2022-11-17T15:46:14.687Z,89.36
2022-11-17T15:48:43.536Z,89.49
2022-11-17T15:51:15.894Z,89.78
2022-11-17T15:53:43.747Z,89.99
2022-11-17T15:56:20.726Z,90.11
2022-11-17T15:58:49.034Z,90.42
2022-11-17T16:01:17.332Z,90.54
2022-11-17T16:03:45.366Z,90.34
2022-11-17T16:06:12.696Z,90.28
2022-11-17T16:08:40.014Z,90.40
2022-11-17T16:11:07.021Z,89.72
2022-11-17T16:13:34.035Z,90.05
2022-11-17T16:16:01.228Z,89.59
2022-11-17T16:18:28.562Z,89.87
2022-11-17T16:20:57.949Z,90.58
2022-11-17T16:23:28.218Z,90.89
2022-11-17T16:25:54.988Z,90.43
2022-11-17T16:28:21.647Z,90.73
2022-11-17T16:30:48.281Z,91.07
2022-11-17T16:33:16.586Z,90.81
2022-11-17T16:35:45.382Z,91.12
2022-11-17T16:38:17.054Z,91.32
2022-11-17T16:40:44.236Z,91.22
2022-11-17T16:43:13.263Z,91.50
2022-11-17T16:45:45.236Z,91.30
2022-11-17T16:48:12.665Z,90.41
2022-11-17T16:50:40.859Z,90.57
2022-11-17T16:53:07.757Z,90.86
2022-11-17T16:55:38.033Z,90.57
2022-11-17T16:58:06.696Z,91.62
2022-11-17T17:00:37.795Z,91.99
2022-11-17T17:03:04.783Z,92.00
2022-11-17T17:05:31.434Z,91.88
2022-11-17T17:07:58.328Z,91.92
2022-11-17T17:10:26.324Z,92.36
2022-11-17T17:12:53.378Z,91.96
2022-11-17T17:15:20.138Z,91.52
2022-11-17T17:17:46.939Z,91.12
2022-11-17T17:20:13.577Z,91.37
2022-11-17T17:22:40.484Z,91.45
2022-11-17T17:25:07.879Z,90.93
2022-11-17T17:27:34.624Z,90.65
2022-11-17T17:30:01.406Z,91.17
2022-11-17T17:32:28.104Z,91.44
2022-11-17T17:34:54.695Z,91.37
2022-11-17T17:37:21.419Z,91.22
2022-11-17T17:39:48.036Z,90.81
2022-11-17T17:42:14.867Z,91.27
2022-11-17T17:44:41.717Z,91.52
2022-11-17T17:47:08.462Z,90.84
2022-11-17T17:49:35.130Z,91.16
2022-11-17T17:52:01.942Z,91.79
2022-11-17T17:54:28.732Z,91.74
2022-11-17T17:56:57.691Z,91.90
2022-11-17T17:59:24.322Z,90.99
2022-11-17T18:01:51.522Z,91.52
2022-11-17T18:04:18.208Z,91.45
2022-11-17T18:06:49.024Z,91.75
2022-11-17T18:09:20.208Z,91.89
2022-11-17T18:11:54.542Z,91.82
2022-11-17T18:14:24.654Z,92.07
2022-11-17T18:16:53.550Z,92.34
2022-11-17T18:19:20.763Z,92.48
2022-11-17T18:21:47.495Z,92.67
2022-11-17T18:24:15.366Z,93.03
2022-11-17T18:26:43.212Z,93.48
2022-11-17T18:29:17.063Z,93.48
2022-11-17T18:31:46.860Z,93.53
2022-11-17T18:34:17.179Z,93.39
2022-11-17T18:36:43.821Z,93.09
2022-11-17T18:39:10.669Z,93.04
2022-11-17T18:41:37.518Z,93.25
2022-11-17T18:44:04.401Z,93.43
2022-11-17T18:46:32.355Z,93.82
2022-11-17T18:48:59.657Z,94.13
2022-11-17T18:51:32.006Z,93.98
2022-11-17T18:54:00.922Z,93.91
2022-11-17T18:56:31.855Z,93.87
2022-11-17T18:58:59.370Z,93.71
2022-11-17T19:01:30.567Z,94.37
2022-11-17T19:04:00.961Z,93.98
2022-11-17T19:06:27.823Z,93.02
2022-11-17T19:08:54.729Z,93.61
2022-11-17T19:11:22.766Z,93.83
2022-11-17T19:13:49.577Z,93.88
2022-11-17T19:16:19.349Z,93.94
2022-11-17T19:18:48.228Z,93.66
2022-11-17T19:21:23.955Z,93.82
2022-11-17T19:23:52.205Z,93.91
2022-11-17T19:26:21.647Z,93.59
2022-11-17T19:28:48.881Z,94.58
2022-11-17T19:31:20.182Z,94.09
2022-11-17T19:33:48.433Z,94.38
2022-11-17T19:36:17.955Z,94.68
2022-11-17T19:38:48.215Z,94.65
2022-11-17T19:41:17.589Z,94.45
2022-11-17T19:43:45.708Z,94.99
2022-11-17T19:46:14.870Z,94.91
2022-11-17T19:48:42.206Z,95.18
2022-11-17T19:51:15.018Z,95.15
2022-11-17T19:53:42.409Z,95.10
2022-11-17T19:56:09.917Z,95.50
2022-11-17T19:58:36.627Z,95.74
2022-11-17T20:01:15.348Z,95.54
2022-11-17T20:03:43.113Z,95.13
2022-11-17T20:06:11.251Z,95.19
2022-11-17T20:08:39.094Z,95.61
2022-11-17T20:11:12.505Z,95.48
2022-11-17T20:13:40.151Z,95.22
2022-11-17T20:16:12.183Z,95.19
2022-11-17T20:18:43.418Z,95.56
2022-11-17T20:21:13.880Z,95.71
2022-11-17T20:23:41.966Z,95.55
2022-11-17T20:26:13.768Z,95.84
2022-11-17T20:28:41.075Z,95.32
2022-11-17T20:31:12.903Z,94.91
2022-11-17T20:33:40.783Z,94.61
2022-11-17T20:36:09.806Z,94.92
2022-11-17T20:38:36.710Z,95.32
2022-11-17T20:41:04.881Z,94.81
2022-11-17T20:43:32.594Z,95.28
2022-11-17T20:45:59.384Z,94.44
2022-11-17T20:48:27.561Z,94.84
2022-11-17T20:51:01.156Z,95.65
2022-11-17T20:53:29.060Z,95.68
2022-11-17T20:55:57.146Z,95.53
2022-11-17T20:58:24.959Z,96.14
2022-11-17T21:00:52.188Z,96.01
2022-11-17T21:03:19.424Z,95.71
2022-11-17T21:06:00.642Z,95.66
2022-11-17T21:08:30.103Z,96.01
2022-11-17T21:10:58.743Z,96.24
2022-11-17T21:13:25.855Z,96.72
2022-11-17T21:16:21.671Z,97.10
2022-11-17T21:18:48.804Z,97.25
2022-11-17T21:21:15.997Z,97.63
2022-11-17T21:23:43.978Z,98.36
2022-11-17T21:26:18.727Z,98.92
2022-11-17T21:28:46.809Z,98.97
2022-11-17T21:31:15.663Z,99.24
2022-11-17T21:33:43.583Z,99.85
2022-11-17T21:36:15.493Z,99.85
2022-11-17T21:38:43.333Z,100.00
2022-11-17T21:41:11.148Z,100.00
2022-11-17T21:43:39.898Z,100.00
2022-11-17T21:46:09.188Z,100.00
2022-11-17T21:48:37.290Z,100.00
2022-11-17T21:51:05.398Z,100.00
2022-11-17T21:53:32.179Z,100.00
2022-11-17T21:56:02.485Z,100.00
2022-11-17T21:58:29.414Z,100.00
2022-11-17T22:00:56.337Z,100.00
2022-11-17T22:03:24.299Z,100.00
2022-11-17T22:05:52.353Z,100.00
2022-11-17T22:08:19.381Z,100.00
2022-11-17T22:10:45.961Z,100.00
2022-11-17T22:13:12.719Z,100.00
2022-11-17T22:15:39.455Z,100.00
2022-11-17T22:18:06.276Z,100.00
2022-11-17T22:20:32.931Z,100.00
2022-11-17T22:22:59.606Z,100.00
2022-11-17T22:25:44.244Z,100.00
2022-11-17T22:28:11.853Z,100.00
2022-11-17T22:30:38.973Z,100.00
2022-11-17T22:33:05.783Z,100.00
2022-11-17T22:35:32.512Z,100.00
2022-11-17T22:37:59.171Z,100.00
2022-11-17T22:40:25.790Z,100.00
2022-11-17T22:42:52.816Z,100.00
2022-11-17T22:45:19.512Z,100.00
2022-11-17T22:47:46.303Z,100.00
2022-11-17T22:50:13.039Z,100.00
2022-11-17T22:52:39.714Z,100.00
2022-11-17T22:55:06.696Z,100.00
2022-11-17T22:57:33.403Z,100.00
2022-11-17T23:00:00.014Z,100.00
2022-11-17T23:02:26.703Z,100.00
2022-11-17T23:04:53.554Z,100.00
2022-11-17T23:07:20.340Z,100.00
2022-11-17T23:09:46.950Z,100.00
2022-11-17T23:12:14.531Z,100.00
2022-11-17T23:14:41.146Z,100.00
2022-11-17T23:17:07.851Z,100.00
2022-11-17T23:19:34.547Z,100.00
2022-11-17T23:22:01.182Z,100.00
2022-11-17T23:24:27.779Z,100.00
2022-11-17T23:26:54.660Z,100.00
2022-11-17T23:29:21.537Z,100.00
2022-11-17T23:31:48.230Z,100.00
2022-11-17T23:34:14.946Z,100.00
2022-11-17T23:36:41.582Z,100.00
2022-11-17T23:39:08.286Z,100.00
2022-11-17T23:41:34.992Z,100.00
2022-11-17T23:44:01.618Z,100.00
2022-11-17T23:46:28.437Z,100.00
2022-11-17T23:48:57.086Z,100.00
2022-11-17T23:51:25.733Z,100.00
2022-11-17T23:53:52.961Z,100.00
2022-11-17T23:56:20.643Z,100.00
2022-11-17T23:58:48.027Z,100.00
